Time,TemperatureF,DewpointF,PressureIn,WindDirection,WindDirectionDegrees,WindSpeedMPH,WindSpeedGustMPH,Humidity,HourlyPrecipIn,Conditions,Clouds,dailyrainin,SolarRadiationWatts/m^2,SoftwareType,DateUTC
2013-03-18 00:02:00,30.0,3.0,-100.00,WNW,301,6.0,10.0,31,0.00,,,0.03,0.000000,,2013-03-18 06:02:00,
2013-03-18 00:12:00,30.0,3.0,-100.00,WNW,301,6.0,10.0,31,0.00,,,0.03,0.000000,,2013-03-18 06:12:00,
2013-03-18 00:22:00,30.0,3.0,-100.00,WNW,301,6.0,10.0,31,0.00,,,0.03,0.000000,,2013-03-18 06:22:00,
2013-03-18 00:42:00,28.0,1.0,-100.00,NW,312,3.0,10.0,30,0.00,,,0.03,0.000000,,2013-03-18 06:42:00,
2013-03-18 00:52:00,28.0,1.0,-100.00,NW,312,3.0,10.0,30,0.00,,,0.03,0.000000,,2013-03-18 06:52:00,
2013-03-18 01:02:00,28.0,1.0,-100.00,NW,312,3.0,10.0,30,0.00,,,0.03,0.000000,,2013-03-18 07:02:00,
2013-03-18 01:12:00,28.0,1.0,-100.00,NW,312,3.0,10.0,30,0.00,,,0.03,0.000000,,2013-03-18 07:12:00,
2013-03-18 01:22:00,28.0,1.0,-100.00,NW,312,3.0,10.0,30,0.00,,,0.03,0.000000,,2013-03-18 07:22:00,
2013-03-18 01:43:00,27.0,1.0,-100.00,NW,308,3.0,9.0,32,0.00,,,0.03,0.000000,,2013-03-18 07:43:00,
2013-03-18 01:53:00,27.0,1.0,-100.00,NW,308,3.0,9.0,32,0.00,,,0.03,0.000000,,2013-03-18 07:53:00,
2013-03-18 02:02:00,27.0,1.0,-100.00,NW,308,3.0,9.0,32,0.00,,,0.03,0.000000,,2013-03-18 08:02:00,
2013-03-18 02:12:00,27.0,1.0,-100.00,NW,308,3.0,9.0,32,0.00,,,0.03,0.000000,,2013-03-18 08:12:00,
2013-03-18 02:22:00,27.0,1.0,-100.00,NW,308,3.0,9.0,32,0.00,,,0.03,0.000000,,2013-03-18 08:22:00,
2013-03-18 02:43:00,27.0,1.0,-100.00,WNW,287,4.0,8.0,32,0.00,,,0.03,0.000000,,2013-03-18 08:43:00,
2013-03-18 02:53:00,27.0,1.0,-100.00,WNW,287,4.0,8.0,32,0.00,,,0.03,0.000000,,2013-03-18 08:53:00,
2013-03-18 03:02:00,27.0,1.0,-100.00,WNW,287,4.0,8.0,32,0.00,,,0.03,0.000000,,2013-03-18 09:02:00,
2013-03-18 03:12:00,27.0,1.0,-100.00,WNW,287,4.0,8.0,32,0.00,,,0.03,0.000000,,2013-03-18 09:12:00,
2013-03-18 03:22:00,27.0,1.0,-100.00,WNW,287,4.0,8.0,32,0.00,,,0.03,0.000000,,2013-03-18 09:22:00,
2013-03-18 03:23:00,25.0,1.0,-100.00,WSW,241,2.0,11.0,34,0.00,,,0.03,0.000000,,2013-03-18 09:23:00,
2013-03-18 03:43:00,25.0,1.0,-100.00,WSW,241,2.0,11.0,34,0.00,,,0.03,0.000000,,2013-03-18 09:43:00,
2013-03-18 03:53:00,25.0,1.0,-100.00,WSW,241,2.0,11.0,34,0.00,,,0.03,0.000000,,2013-03-18 09:53:00,
2013-03-18 04:03:00,25.0,1.0,-100.00,WSW,241,2.0,11.0,34,0.00,,,0.03,0.000000,,2013-03-18 10:03:00,
2013-03-18 04:12:00,25.0,1.0,-100.00,WSW,241,2.0,11.0,34,0.00,,,0.03,0.000000,,2013-03-18 10:12:00,
2013-03-18 04:42:00,26.0,1.0,-100.00,WSW,258,3.0,7.0,33,0.00,,,0.03,0.000000,,2013-03-18 10:42:00,
2013-03-18 04:53:00,26.0,1.0,-100.00,WSW,258,3.0,7.0,33,0.00,,,0.03,0.000000,,2013-03-18 10:53:00,
2013-03-18 05:03:00,26.0,1.0,-100.00,WSW,258,3.0,7.0,33,0.00,,,0.03,0.000000,,2013-03-18 11:03:00,
2013-03-18 05:13:00,26.0,1.0,-100.00,WSW,258,3.0,7.0,33,0.00,,,0.03,0.000000,,2013-03-18 11:13:00,
2013-03-18 05:22:00,26.0,1.0,-100.00,WSW,258,3.0,7.0,33,0.00,,,0.03,0.000000,,2013-03-18 11:22:00,
2013-03-18 05:43:00,26.0,1.0,-100.00,SE,143,2.0,8.0,33,0.00,,,0.03,0.000000,,2013-03-18 11:43:00,
2013-03-18 05:52:00,26.0,1.0,-100.00,SE,143,2.0,8.0,33,0.00,,,0.03,0.000000,,2013-03-18 11:52:00,
2013-03-18 06:02:00,26.0,1.0,-100.00,SE,143,2.0,8.0,33,0.00,,,0.03,0.000000,,2013-03-18 12:02:00,
2013-03-18 06:12:00,26.0,1.0,-100.00,SE,143,2.0,8.0,33,0.00,,,0.03,0.000000,,2013-03-18 12:12:00,
2013-03-18 06:22:00,26.0,1.0,-100.00,SE,143,2.0,8.0,33,0.00,,,0.03,0.000000,,2013-03-18 12:22:00,
2013-03-18 06:43:00,25.0,5.0,-100.00,East,94,2.0,5.0,41,0.00,,,0.03,0.000000,,2013-03-18 12:43:00,
2013-03-18 06:52:00,25.0,5.0,-100.00,East,94,2.0,5.0,41,0.00,,,0.03,0.000000,,2013-03-18 12:52:00,
2013-03-18 07:02:00,25.0,5.0,-100.00,East,94,2.0,5.0,41,0.00,,,0.03,0.000000,,2013-03-18 13:02:00,
2013-03-18 07:12:00,25.0,5.0,-100.00,East,94,2.0,5.0,41,0.00,,,0.03,0.000000,,2013-03-18 13:12:00,
2013-03-18 07:22:00,25.0,5.0,-100.00,East,94,2.0,5.0,41,0.00,,,0.03,0.000000,,2013-03-18 13:22:00,
2013-03-18 07:42:00,24.0,10.0,-100.00,WSW,257,2.0,7.0,54,0.00,,,0.03,1.000000,,2013-03-18 13:42:00,
2013-03-18 07:52:00,24.0,10.0,-100.00,WSW,257,2.0,7.0,54,0.00,,,0.03,1.000000,,2013-03-18 13:52:00,
2013-03-18 08:02:00,24.0,10.0,-100.00,WSW,257,2.0,7.0,54,0.00,,,0.03,1.000000,,2013-03-18 14:02:00,
2013-03-18 08:12:00,24.0,10.0,-100.00,WSW,257,2.0,7.0,54,0.00,,,0.03,1.000000,,2013-03-18 14:12:00,
2013-03-18 08:22:00,24.0,10.0,-100.00,WSW,257,2.0,7.0,54,0.00,,,0.03,1.000000,,2013-03-18 14:22:00,
2013-03-18 08:42:00,23.0,13.0,-100.00,SW,230,3.0,6.0,64,0.00,,,0.03,28.000000,,2013-03-18 14:42:00,
2013-03-18 08:52:00,23.0,13.0,-100.00,SW,230,3.0,6.0,64,0.00,,,0.03,28.000000,,2013-03-18 14:52:00,
2013-03-18 09:02:00,23.0,13.0,-100.00,SW,230,3.0,6.0,64,0.00,,,0.03,28.000000,,2013-03-18 15:02:00,
2013-03-18 09:12:00,23.0,13.0,-100.00,SW,230,3.0,6.0,64,0.00,,,0.03,28.000000,,2013-03-18 15:12:00,
2013-03-18 09:22:00,23.0,13.0,-100.00,SW,230,3.0,6.0,64,0.00,,,0.03,28.000000,,2013-03-18 15:22:00,
2013-03-18 09:43:00,24.0,16.0,-100.00,WNW,292,2.0,6.0,71,0.00,,,0.03,92.000000,,2013-03-18 15:43:00,
2013-03-18 09:52:00,24.0,16.0,-100.00,WNW,292,2.0,6.0,71,0.00,,,0.03,92.000000,,2013-03-18 15:52:00,
2013-03-18 10:03:00,24.0,16.0,-100.00,WNW,292,2.0,6.0,71,0.00,,,0.03,92.000000,,2013-03-18 16:03:00,
2013-03-18 10:12:00,24.0,16.0,-100.00,WNW,292,2.0,6.0,71,0.00,,,0.03,92.000000,,2013-03-18 16:12:00,
2013-03-18 10:22:00,24.0,16.0,-100.00,WNW,292,2.0,6.0,71,0.00,,,0.03,92.000000,,2013-03-18 16:22:00,
2013-03-18 10:42:00,27.0,15.0,-100.00,ENE,58,2.0,4.0,61,0.00,,,0.03,262.000000,,2013-03-18 16:42:00,
2013-03-18 10:53:00,27.0,15.0,-100.00,ENE,58,2.0,4.0,61,0.00,,,0.03,262.000000,,2013-03-18 16:53:00,
2013-03-18 11:02:00,27.0,15.0,-100.00,ENE,58,2.0,4.0,61,0.00,,,0.03,262.000000,,2013-03-18 17:02:00,
2013-03-18 11:12:00,27.0,15.0,-100.00,ENE,58,2.0,4.0,61,0.00,,,0.03,262.000000,,2013-03-18 17:12:00,
2013-03-18 11:22:00,27.0,15.0,-100.00,ENE,58,2.0,4.0,61,0.00,,,0.03,262.000000,,2013-03-18 17:22:00,
2013-03-18 11:43:00,29.0,17.0,-100.00,NE,46,3.0,7.0,60,0.00,,,0.02,502.000000,,2013-03-18 17:43:00,
2013-03-18 11:52:00,29.0,17.0,-100.00,NE,46,3.0,7.0,60,0.00,,,0.02,502.000000,,2013-03-18 17:52:00,
2013-03-18 12:02:00,29.0,17.0,-100.00,NE,46,3.0,7.0,60,0.00,,,0.02,502.000000,,2013-03-18 18:02:00,
2013-03-18 12:12:00,29.0,17.0,-100.00,NE,46,3.0,7.0,60,0.00,,,0.02,502.000000,,2013-03-18 18:12:00,
2013-03-18 12:22:00,29.0,17.0,-100.00,NE,46,3.0,7.0,60,0.00,,,0.02,502.000000,,2013-03-18 18:22:00,
2013-03-18 12:42:00,31.0,11.0,-100.00,West,274,4.0,9.0,43,0.00,,,0.01,642.000000,,2013-03-18 18:42:00,
2013-03-18 12:52:00,31.0,11.0,-100.00,West,274,4.0,9.0,43,0.00,,,0.01,642.000000,,2013-03-18 18:52:00,
2013-03-18 13:02:00,31.0,11.0,-100.00,West,274,4.0,9.0,43,0.00,,,0.01,642.000000,,2013-03-18 19:02:00,
2013-03-18 13:12:00,31.0,11.0,-100.00,West,274,4.0,9.0,43,0.00,,,0.01,642.000000,,2013-03-18 19:12:00,
2013-03-18 13:22:00,31.0,11.0,-100.00,West,274,4.0,9.0,43,0.00,,,0.01,642.000000,,2013-03-18 19:22:00,
2013-03-18 13:42:00,32.0,10.0,-100.00,NNW,346,4.0,10.0,39,0.00,,,0.01,675.000000,,2013-03-18 19:42:00,
2013-03-18 13:52:00,32.0,10.0,-100.00,NNW,346,4.0,10.0,39,0.00,,,0.01,675.000000,,2013-03-18 19:52:00,
2013-03-18 14:02:00,32.0,10.0,-100.00,NNW,346,4.0,10.0,39,0.00,,,0.01,675.000000,,2013-03-18 20:02:00,
2013-03-18 14:12:00,32.0,10.0,-100.00,NNW,346,4.0,10.0,39,0.00,,,0.01,675.000000,,2013-03-18 20:12:00,
2013-03-18 14:22:00,32.0,10.0,-100.00,NNW,346,4.0,10.0,39,0.00,,,0.01,675.000000,,2013-03-18 20:22:00,
2013-03-18 14:43:00,33.0,11.0,-100.00,NNE,29,3.0,11.0,39,0.00,,,0.01,549.000000,,2013-03-18 20:43:00,
2013-03-18 14:52:00,33.0,11.0,-100.00,NNE,29,3.0,11.0,39,0.00,,,0.01,549.000000,,2013-03-18 20:52:00,
2013-03-18 15:02:00,33.0,11.0,-100.00,NNE,29,3.0,11.0,39,0.00,,,0.01,549.000000,,2013-03-18 21:02:00,
2013-03-18 15:12:00,33.0,11.0,-100.00,NNE,29,3.0,11.0,39,0.00,,,0.01,549.000000,,2013-03-18 21:12:00,
2013-03-18 15:22:00,33.0,11.0,-100.00,NNE,29,3.0,11.0,39,0.00,,,0.01,549.000000,,2013-03-18 21:22:00,
2013-03-18 15:23:00,34.0,7.0,-100.00,West,267,4.0,11.0,31,0.00,,,0.01,640.000000,,2013-03-18 21:23:00,
2013-03-18 15:43:00,34.0,7.0,-100.00,West,267,4.0,11.0,31,0.00,,,0.01,640.000000,,2013-03-18 21:43:00,
2013-03-18 15:53:00,34.0,7.0,-100.00,West,267,4.0,11.0,31,0.00,,,0.01,640.000000,,2013-03-18 21:53:00,
2013-03-18 16:03:00,34.0,7.0,-100.00,West,267,4.0,11.0,31,0.00,,,0.01,640.000000,,2013-03-18 22:03:00,
2013-03-18 16:13:00,34.0,7.0,-100.00,West,267,4.0,11.0,31,0.00,,,0.01,640.000000,,2013-03-18 22:13:00,
2013-03-18 16:42:00,35.0,6.0,-100.00,ESE,104,5.0,12.0,29,0.00,,,0.00,568.000000,,2013-03-18 22:42:00,
2013-03-18 16:53:00,35.0,6.0,-100.00,ESE,104,5.0,12.0,29,0.00,,,0.00,568.000000,,2013-03-18 22:53:00,
2013-03-18 17:03:00,35.0,6.0,-100.00,ESE,104,5.0,12.0,29,0.00,,,0.00,568.000000,,2013-03-18 23:03:00,
2013-03-18 17:12:00,35.0,6.0,-100.00,ESE,104,5.0,12.0,29,0.00,,,0.00,568.000000,,2013-03-18 23:12:00,
2013-03-18 17:22:00,35.0,6.0,-100.00,ESE,104,5.0,12.0,29,0.00,,,0.00,568.000000,,2013-03-18 23:22:00,
2013-03-18 17:43:00,32.0,9.0,-100.00,North,358,4.0,14.0,38,0.00,,,0.00,247.000000,,2013-03-18 23:43:00,
2013-03-18 17:53:00,32.0,9.0,-100.00,North,358,4.0,14.0,38,0.00,,,0.00,247.000000,,2013-03-18 23:53:00,
2013-03-18 18:02:00,32.0,9.0,-100.00,North,358,4.0,14.0,38,0.00,,,0.00,247.000000,,2013-03-19 00:02:00,
2013-03-18 18:12:00,32.0,9.0,-100.00,North,358,4.0,14.0,38,0.00,,,0.00,247.000000,,2013-03-19 00:12:00,
2013-03-18 18:22:00,32.0,9.0,-100.00,North,358,4.0,14.0,38,0.00,,,0.00,247.000000,,2013-03-19 00:22:00,
2013-03-18 18:43:00,32.0,8.0,-100.00,ENE,76,3.0,7.0,36,0.00,,,0.00,89.000000,,2013-03-19 00:43:00,
2013-03-18 18:52:00,32.0,8.0,-100.00,ENE,76,3.0,7.0,36,0.00,,,0.00,89.000000,,2013-03-19 00:52:00,
2013-03-18 19:02:00,32.0,8.0,-100.00,ENE,76,3.0,7.0,36,0.00,,,0.00,89.000000,,2013-03-19 01:02:00,
2013-03-18 19:12:00,32.0,8.0,-100.00,ENE,76,3.0,7.0,36,0.00,,,0.00,89.000000,,2013-03-19 01:12:00,
2013-03-18 19:22:00,32.0,8.0,-100.00,ENE,76,3.0,7.0,36,0.00,,,0.00,89.000000,,2013-03-19 01:22:00,
2013-03-18 19:43:00,31.0,7.0,-100.00,ENE,75,3.0,7.0,36,0.00,,,0.00,18.000000,,2013-03-19 01:43:00,
2013-03-18 19:52:00,31.0,7.0,-100.00,ENE,75,3.0,7.0,36,0.00,,,0.00,18.000000,,2013-03-19 01:52:00,
2013-03-18 20:02:00,31.0,7.0,-100.00,ENE,75,3.0,7.0,36,0.00,,,0.00,18.000000,,2013-03-19 02:02:00,
2013-03-18 20:12:00,31.0,7.0,-100.00,ENE,75,3.0,7.0,36,0.00,,,0.00,18.000000,,2013-03-19 02:12:00,
2013-03-18 20:22:00,31.0,7.0,-100.00,ENE,75,3.0,7.0,36,0.00,,,0.00,18.000000,,2013-03-19 02:22:00,
2013-03-18 20:43:00,31.0,7.0,-100.00,NE,56,2.0,7.0,36,0.00,,,0.00,0.000000,,2013-03-19 02:43:00,
2013-03-18 20:53:00,31.0,7.0,-100.00,NE,56,2.0,7.0,36,0.00,,,0.00,0.000000,,2013-03-19 02:53:00,
2013-03-18 21:02:00,31.0,7.0,-100.00,NE,56,2.0,7.0,36,0.00,,,0.00,0.000000,,2013-03-19 03:02:00,
2013-03-18 21:12:00,31.0,7.0,-100.00,NE,56,2.0,7.0,36,0.00,,,0.00,0.000000,,2013-03-19 03:12:00,
2013-03-18 21:22:00,31.0,7.0,-100.00,NE,56,2.0,7.0,36,0.00,,,0.00,0.000000,,2013-03-19 03:22:00,
2013-03-18 21:23:00,31.0,5.0,-100.00,ESE,103,2.0,8.0,32,0.00,,,0.00,0.000000,,2013-03-19 03:23:00,
2013-03-18 21:43:00,31.0,5.0,-100.00,ESE,103,2.0,8.0,32,0.00,,,0.00,0.000000,,2013-03-19 03:43:00,
2013-03-18 21:54:00,31.0,5.0,-100.00,ESE,103,2.0,8.0,32,0.00,,,0.00,0.000000,,2013-03-19 03:54:00,
2013-03-18 22:03:00,31.0,5.0,-100.00,ESE,103,2.0,8.0,32,0.00,,,0.00,0.000000,,2013-03-19 04:03:00,
2013-03-18 22:13:00,31.0,5.0,-100.00,ESE,103,2.0,8.0,32,0.00,,,0.00,0.000000,,2013-03-19 04:13:00,
2013-03-18 22:43:00,32.0,4.0,-100.00,East,82,3.0,7.0,30,0.00,,,0.00,0.000000,,2013-03-19 04:43:00,
2013-03-18 22:53:00,32.0,4.0,-100.00,East,82,3.0,7.0,30,0.00,,,0.00,0.000000,,2013-03-19 04:53:00,
2013-03-18 23:02:00,32.0,4.0,-100.00,East,82,3.0,7.0,30,0.00,,,0.00,0.000000,,2013-03-19 05:02:00,
2013-03-18 23:12:00,32.0,4.0,-100.00,East,82,3.0,7.0,30,0.00,,,0.00,0.000000,,2013-03-19 05:12:00,
2013-03-18 23:22:00,32.0,4.0,-100.00,East,82,3.0,7.0,30,0.00,,,0.00,0.000000,,2013-03-19 05:22:00,
2013-03-18 23:43:00,32.0,4.0,-100.00,ESE,110,2.0,7.0,30,0.00,,,0.00,0.000000,,2013-03-19 05:43:00,
2013-03-18 23:52:00,32.0,4.0,-100.00,ESE,110,2.0,7.0,30,0.00,,,0.00,0.000000,,2013-03-19 05:52:00,